sensor_id;sensor_type;location;lat;lon;timestamp;P1;durP1;ratioP1;P2;durP2;ratioP2
64235;SDS011;50564;47.402;9.740;2022-10-31T00:03:09;8.00;;;2.78;;
64235;SDS011;50564;47.402;9.740;2022-10-31T00:08:10;9.77;;;3.72;;
64235;SDS011;50564;47.402;9.740;2022-10-31T00:13:11;7.80;;;3.47;;
64235;SDS011;50564;47.402;9.740;2022-10-31T00:18:13;9.40;;;4.10;;
64235;SDS011;50564;47.402;9.740;2022-10-31T00:23:13;9.45;;;4.80;;
64235;SDS011;50564;47.402;9.740;2022-10-31T00:28:14;13.48;;;4.60;;
64235;SDS011;50564;47.402;9.740;2022-10-31T00:33:14;8.77;;;3.65;;
64235;SDS011;50564;47.402;9.740;2022-10-31T00:38:16;12.07;;;3.30;;
64235;SDS011;50564;47.402;9.740;2022-10-31T00:43:16;9.48;;;3.17;;
64235;SDS011;50564;47.402;9.740;2022-10-31T00:48:17;10.52;;;3.30;;
64235;SDS011;50564;47.402;9.740;2022-10-31T00:53:18;10.65;;;3.30;;
64235;SDS011;50564;47.402;9.740;2022-10-31T00:58:18;10.40;;;3.35;;
64235;SDS011;50564;47.402;9.740;2022-10-31T01:03:19;6.68;;;2.80;;
64235;SDS011;50564;47.402;9.740;2022-10-31T01:08:20;9.30;;;2.83;;
64235;SDS011;50564;47.402;9.740;2022-10-31T01:13:21;8.40;;;3.22;;
64235;SDS011;50564;47.402;9.740;2022-10-31T01:18:32;6.95;;;3.13;;
64235;SDS011;50564;47.402;9.740;2022-10-31T01:23:35;8.50;;;3.63;;
64235;SDS011;50564;47.402;9.740;2022-10-31T01:28:37;11.52;;;5.70;;
64235;SDS011;50564;47.402;9.740;2022-10-31T01:33:39;16.70;;;6.72;;
64235;SDS011;50564;47.402;9.740;2022-10-31T01:38:39;13.52;;;5.68;;
64235;SDS011;50564;47.402;9.740;2022-10-31T01:48:44;7.93;;;4.53;;
64235;SDS011;50564;47.402;9.740;2022-10-31T01:53:44;9.13;;;4.50;;
64235;SDS011;50564;47.402;9.740;2022-10-31T01:58:46;12.13;;;4.43;;
64235;SDS011;50564;47.402;9.740;2022-10-31T02:03:49;8.68;;;3.85;;
64235;SDS011;50564;47.402;9.740;2022-10-31T02:08:50;11.23;;;3.92;;
64235;SDS011;50564;47.402;9.740;2022-10-31T02:13:51;10.82;;;3.83;;
64235;SDS011;50564;47.402;9.740;2022-10-31T02:18:55;9.48;;;4.78;;
64235;SDS011;50564;47.402;9.740;2022-10-31T02:40:27;7.22;;;3.50;;
64235;SDS011;50564;47.402;9.740;2022-10-31T02:45:59;10.35;;;3.60;;
64235;SDS011;50564;47.402;9.740;2022-10-31T02:51:06;7.30;;;3.78;;
64235;SDS011;50564;47.402;9.740;2022-10-31T02:56:14;9.70;;;4.10;;
64235;SDS011;50564;47.402;9.740;2022-10-31T03:23:18;8.70;;;3.53;;
64235;SDS011;50564;47.402;9.740;2022-10-31T03:28:25;8.18;;;3.03;;
64235;SDS011;50564;47.402;9.740;2022-10-31T03:33:33;8.02;;;3.63;;
64235;SDS011;50564;47.402;9.740;2022-10-31T03:38:35;15.23;;;4.68;;
64235;SDS011;50564;47.402;9.740;2022-10-31T03:43:38;8.00;;;3.78;;
64235;SDS011;50564;47.402;9.740;2022-10-31T03:48:42;9.65;;;3.97;;
64235;SDS011;50564;47.402;9.740;2022-10-31T03:53:47;10.68;;;3.38;;
64235;SDS011;50564;47.402;9.740;2022-10-31T03:59:04;9.30;;;3.97;;
64235;SDS011;50564;47.402;9.740;2022-10-31T04:04:08;9.63;;;3.15;;
64235;SDS011;50564;47.402;9.740;2022-10-31T04:09:09;12.02;;;3.88;;
64235;SDS011;50564;47.402;9.740;2022-10-31T04:14:10;9.93;;;3.75;;
64235;SDS011;50564;47.402;9.740;2022-10-31T04:19:11;9.45;;;4.07;;
64235;SDS011;50564;47.402;9.740;2022-10-31T04:24:14;10.80;;;4.10;;
64235;SDS011;50564;47.402;9.740;2022-10-31T04:29:15;12.38;;;4.90;;
64235;SDS011;50564;47.402;9.740;2022-10-31T04:34:16;9.18;;;3.83;;
64235;SDS011;50564;47.402;9.740;2022-10-31T04:39:17;9.00;;;3.92;;
64235;SDS011;50564;47.402;9.740;2022-10-31T04:44:40;9.88;;;4.47;;
64235;SDS011;50564;47.402;9.740;2022-10-31T04:49:42;10.13;;;5.00;;
64235;SDS011;50564;47.402;9.740;2022-10-31T04:54:45;10.20;;;4.75;;
64235;SDS011;50564;47.402;9.740;2022-10-31T05:00:04;13.45;;;6.15;;
64235;SDS011;50564;47.402;9.740;2022-10-31T05:05:08;13.02;;;5.97;;
64235;SDS011;50564;47.402;9.740;2022-10-31T05:10:10;16.70;;;6.82;;
64235;SDS011;50564;47.402;9.740;2022-10-31T05:15:12;15.18;;;8.48;;
64235;SDS011;50564;47.402;9.740;2022-10-31T05:20:17;17.27;;;9.75;;
64235;SDS011;50564;47.402;9.740;2022-10-31T05:25:39;30.65;;;13.35;;
64235;SDS011;50564;47.402;9.740;2022-10-31T05:30:41;29.25;;;14.07;;
64235;SDS011;50564;47.402;9.740;2022-10-31T05:35:46;29.10;;;14.05;;
64235;SDS011;50564;47.402;9.740;2022-10-31T05:41:12;36.00;;;15.20;;
64235;SDS011;50564;47.402;9.740;2022-10-31T05:46:17;27.70;;;15.20;;
64235;SDS011;50564;47.402;9.740;2022-10-31T05:51:50;23.45;;;13.23;;
64235;SDS011;50564;47.402;9.740;2022-10-31T05:56:52;16.60;;;11.30;;
64235;SDS011;50564;47.402;9.740;2022-10-31T06:01:53;22.02;;;11.32;;
64235;SDS011;50564;47.402;9.740;2022-10-31T06:07:16;21.90;;;11.98;;
64235;SDS011;50564;47.402;9.740;2022-10-31T06:12:17;24.65;;;14.55;;
64235;SDS011;50564;47.402;9.740;2022-10-31T06:17:38;22.65;;;14.82;;
64235;SDS011;50564;47.402;9.740;2022-10-31T06:23:02;26.38;;;16.17;;
64235;SDS011;50564;47.402;9.740;2022-10-31T06:28:05;29.20;;;19.23;;
64235;SDS011;50564;47.402;9.740;2022-10-31T06:33:20;27.48;;;17.30;;
64235;SDS011;50564;47.402;9.740;2022-10-31T06:38:30;25.70;;;16.92;;
64235;SDS011;50564;47.402;9.740;2022-10-31T06:43:32;23.98;;;16.10;;
64235;SDS011;50564;47.402;9.740;2022-10-31T06:48:50;24.27;;;16.02;;
64235;SDS011;50564;47.402;9.740;2022-10-31T06:54:05;24.42;;;16.25;;
64235;SDS011;50564;47.402;9.740;2022-10-31T06:59:06;23.77;;;14.75;;
64235;SDS011;50564;47.402;9.740;2022-10-31T07:04:32;28.48;;;17.58;;
64235;SDS011;50564;47.402;9.740;2022-10-31T07:09:33;24.02;;;17.17;;
64235;SDS011;50564;47.402;9.740;2022-10-31T07:14:36;30.42;;;21.55;;
64235;SDS011;50564;47.402;9.740;2022-10-31T07:19:37;19.67;;;16.42;;
64235;SDS011;50564;47.402;9.740;2022-10-31T07:24:38;15.20;;;12.50;;
64235;SDS011;50564;47.402;9.740;2022-10-31T07:30:17;14.23;;;12.43;;
64235;SDS011;50564;47.402;9.740;2022-10-31T07:35:19;16.20;;;14.43;;
64235;SDS011;50564;47.402;9.740;2022-10-31T07:40:30;18.98;;;14.02;;
64235;SDS011;50564;47.402;9.740;2022-10-31T07:45:31;17.45;;;13.52;;
64235;SDS011;50564;47.402;9.740;2022-10-31T07:51:00;19.80;;;14.02;;
64235;SDS011;50564;47.402;9.740;2022-10-31T07:56:19;21.40;;;15.68;;
64235;SDS011;50564;47.402;9.740;2022-10-31T08:01:20;27.52;;;18.45;;
64235;SDS011;50564;47.402;9.740;2022-10-31T08:06:37;24.85;;;17.23;;
64235;SDS011;50564;47.402;9.740;2022-10-31T08:11:54;25.90;;;17.20;;
64235;SDS011;50564;47.402;9.740;2022-10-31T08:16:56;21.90;;;16.08;;
64235;SDS011;50564;47.402;9.740;2022-10-31T08:21:59;22.70;;;14.20;;
64235;SDS011;50564;47.402;9.740;2022-10-31T08:27:00;20.10;;;15.02;;
64235;SDS011;50564;47.402;9.740;2022-10-31T08:32:01;20.67;;;14.68;;
64235;SDS011;50564;47.402;9.740;2022-10-31T08:37:20;19.17;;;13.63;;
64235;SDS011;50564;47.402;9.740;2022-10-31T08:42:23;22.13;;;14.32;;
64235;SDS011;50564;47.402;9.740;2022-10-31T08:47:24;22.40;;;15.20;;
64235;SDS011;50564;47.402;9.740;2022-10-31T08:52:24;26.40;;;15.93;;
64235;SDS011;50564;47.402;9.740;2022-10-31T08:57:30;21.88;;;15.70;;
64235;SDS011;50564;47.402;9.740;2022-10-31T09:02:32;21.45;;;15.23;;
64235;SDS011;50564;47.402;9.740;2022-10-31T09:07:34;20.13;;;15.10;;
64235;SDS011;50564;47.402;9.740;2022-10-31T09:12:35;21.40;;;15.73;;
64235;SDS011;50564;47.402;9.740;2022-10-31T09:17:54;15.73;;;13.23;;
64235;SDS011;50564;47.402;9.740;2022-10-31T09:23:13;18.58;;;12.77;;
64235;SDS011;50564;47.402;9.740;2022-10-31T09:28:18;14.27;;;11.57;;
64235;SDS011;50564;47.402;9.740;2022-10-31T09:33:21;12.50;;;9.32;;
64235;SDS011;50564;47.402;9.740;2022-10-31T09:38:35;14.30;;;10.85;;
64235;SDS011;50564;47.402;9.740;2022-10-31T09:43:43;16.45;;;11.32;;
64235;SDS011;50564;47.402;9.740;2022-10-31T09:59:30;18.80;;;10.82;;
64235;SDS011;50564;47.402;9.740;2022-10-31T10:04:42;12.57;;;7.93;;
64235;SDS011;50564;47.402;9.740;2022-10-31T10:09:54;17.02;;;10.35;;
64235;SDS011;50564;47.402;9.740;2022-10-31T10:15:33;16.23;;;10.35;;
64235;SDS011;50564;47.402;9.740;2022-10-31T10:26:18;15.30;;;10.80;;
64235;SDS011;50564;47.402;9.740;2022-10-31T10:31:21;16.50;;;11.82;;
64235;SDS011;50564;47.402;9.740;2022-10-31T10:36:36;18.83;;;11.70;;
64235;SDS011;50564;47.402;9.740;2022-10-31T10:41:41;17.85;;;12.02;;
64235;SDS011;50564;47.402;9.740;2022-10-31T10:46:51;20.02;;;13.65;;
64235;SDS011;50564;47.402;9.740;2022-10-31T10:52:19;17.35;;;12.68;;
64235;SDS011;50564;47.402;9.740;2022-10-31T10:57:41;20.05;;;12.88;;
64235;SDS011;50564;47.402;9.740;2022-10-31T11:02:56;17.83;;;12.90;;
64235;SDS011;50564;47.402;9.740;2022-10-31T11:07:57;20.92;;;13.40;;
64235;SDS011;50564;47.402;9.740;2022-10-31T11:13:06;19.50;;;14.45;;
64235;SDS011;50564;47.402;9.740;2022-10-31T11:18:18;16.15;;;12.20;;
64235;SDS011;50564;47.402;9.740;2022-10-31T11:23:22;18.02;;;12.77;;
64235;SDS011;50564;47.402;9.740;2022-10-31T11:28:25;15.63;;;11.60;;
64235;SDS011;50564;47.402;9.740;2022-10-31T11:33:28;15.70;;;12.93;;
64235;SDS011;50564;47.402;9.740;2022-10-31T11:38:35;18.75;;;12.18;;
64235;SDS011;50564;47.402;9.740;2022-10-31T11:43:45;16.17;;;11.65;;
64235;SDS011;50564;47.402;9.740;2022-10-31T11:48:50;14.40;;;10.93;;
64235;SDS011;50564;47.402;9.740;2022-10-31T11:53:53;15.05;;;10.65;;
64235;SDS011;50564;47.402;9.740;2022-10-31T11:58:56;18.63;;;12.02;;
64235;SDS011;50564;47.402;9.740;2022-10-31T12:04:17;15.07;;;10.43;;
64235;SDS011;50564;47.402;9.740;2022-10-31T12:09:25;21.92;;;11.82;;
64235;SDS011;50564;47.402;9.740;2022-10-31T12:57:53;16.33;;;12.25;;
64235;SDS011;50564;47.402;9.740;2022-10-31T13:13:45;18.05;;;12.15;;
64235;SDS011;50564;47.402;9.740;2022-10-31T13:24:22;16.23;;;12.07;;
64235;SDS011;50564;47.402;9.740;2022-10-31T13:35:30;18.40;;;12.50;;
64235;SDS011;50564;47.402;9.740;2022-10-31T13:45:55;17.58;;;11.75;;
64235;SDS011;50564;47.402;9.740;2022-10-31T13:50:58;17.63;;;12.05;;
64235;SDS011;50564;47.402;9.740;2022-10-31T13:56:11;24.77;;;14.50;;
64235;SDS011;50564;47.402;9.740;2022-10-31T14:01:21;18.10;;;13.55;;
64235;SDS011;50564;47.402;9.740;2022-10-31T14:06:22;17.50;;;13.18;;
64235;SDS011;50564;47.402;9.740;2022-10-31T14:11:24;18.35;;;13.30;;
64235;SDS011;50564;47.402;9.740;2022-10-31T14:16:28;21.85;;;13.35;;
64235;SDS011;50564;47.402;9.740;2022-10-31T14:21:35;19.90;;;12.57;;
64235;SDS011;50564;47.402;9.740;2022-10-31T14:32:24;23.92;;;12.73;;
64235;SDS011;50564;47.402;9.740;2022-10-31T14:58:28;19.58;;;11.80;;
64235;SDS011;50564;47.402;9.740;2022-10-31T15:08:46;19.10;;;11.65;;
64235;SDS011;50564;47.402;9.740;2022-10-31T15:13:54;21.38;;;13.27;;
64235;SDS011;50564;47.402;9.740;2022-10-31T15:19:03;17.95;;;13.40;;
64235;SDS011;50564;47.402;9.740;2022-10-31T15:24:06;18.45;;;12.30;;
64235;SDS011;50564;47.402;9.740;2022-10-31T15:29:11;16.92;;;12.40;;
64235;SDS011;50564;47.402;9.740;2022-10-31T15:34:35;19.83;;;14.05;;
64235;SDS011;50564;47.402;9.740;2022-10-31T15:39:37;18.50;;;10.90;;
64235;SDS011;50564;47.402;9.740;2022-10-31T15:44:39;21.52;;;12.60;;
64235;SDS011;50564;47.402;9.740;2022-10-31T15:50:04;16.88;;;9.15;;
64235;SDS011;50564;47.402;9.740;2022-10-31T15:55:04;19.45;;;10.30;;
64235;SDS011;50564;47.402;9.740;2022-10-31T16:05:25;24.33;;;15.98;;
64235;SDS011;50564;47.402;9.740;2022-10-31T16:10:38;27.73;;;17.52;;
64235;SDS011;50564;47.402;9.740;2022-10-31T16:15:45;24.98;;;15.00;;
64235;SDS011;50564;47.402;9.740;2022-10-31T16:20:52;26.63;;;18.35;;
64235;SDS011;50564;47.402;9.740;2022-10-31T16:25:55;22.50;;;14.52;;
64235;SDS011;50564;47.402;9.740;2022-10-31T16:30:56;27.80;;;17.23;;
64235;SDS011;50564;47.402;9.740;2022-10-31T16:35:57;20.92;;;14.68;;
64235;SDS011;50564;47.402;9.740;2022-10-31T16:40:58;29.80;;;22.08;;
64235;SDS011;50564;47.402;9.740;2022-10-31T16:46:01;27.08;;;17.05;;
64235;SDS011;50564;47.402;9.740;2022-10-31T16:51:02;21.02;;;13.00;;
64235;SDS011;50564;47.402;9.740;2022-10-31T16:56:03;20.85;;;11.65;;
64235;SDS011;50564;47.402;9.740;2022-10-31T17:01:04;16.83;;;11.43;;
64235;SDS011;50564;47.402;9.740;2022-10-31T17:06:08;16.90;;;9.38;;
64235;SDS011;50564;47.402;9.740;2022-10-31T17:11:15;18.63;;;9.93;;
64235;SDS011;50564;47.402;9.740;2022-10-31T17:16:18;18.77;;;10.35;;
64235;SDS011;50564;47.402;9.740;2022-10-31T17:21:20;19.05;;;11.82;;
64235;SDS011;50564;47.402;9.740;2022-10-31T17:26:22;18.00;;;12.45;;
64235;SDS011;50564;47.402;9.740;2022-10-31T17:31:26;25.38;;;14.20;;
64235;SDS011;50564;47.402;9.740;2022-10-31T17:36:28;20.48;;;12.65;;
64235;SDS011;50564;47.402;9.740;2022-10-31T17:41:29;18.70;;;10.68;;
64235;SDS011;50564;47.402;9.740;2022-10-31T17:46:29;19.58;;;11.23;;
64235;SDS011;50564;47.402;9.740;2022-10-31T17:51:30;20.50;;;10.68;;
64235;SDS011;50564;47.402;9.740;2022-10-31T17:56:31;24.98;;;15.75;;
64235;SDS011;50564;47.402;9.740;2022-10-31T18:01:32;25.48;;;14.48;;
64235;SDS011;50564;47.402;9.740;2022-10-31T18:06:32;27.80;;;14.93;;
64235;SDS011;50564;47.402;9.740;2022-10-31T18:11:33;24.98;;;13.85;;
64235;SDS011;50564;47.402;9.740;2022-10-31T18:16:34;19.42;;;11.60;;
64235;SDS011;50564;47.402;9.740;2022-10-31T18:21:35;17.10;;;9.90;;
64235;SDS011;50564;47.402;9.740;2022-10-31T18:26:36;13.68;;;9.10;;
64235;SDS011;50564;47.402;9.740;2022-10-31T18:31:38;17.88;;;10.25;;
64235;SDS011;50564;47.402;9.740;2022-10-31T18:36:41;15.52;;;8.73;;
64235;SDS011;50564;47.402;9.740;2022-10-31T18:41:42;12.23;;;6.50;;
64235;SDS011;50564;47.402;9.740;2022-10-31T18:46:43;13.82;;;7.65;;
64235;SDS011;50564;47.402;9.740;2022-10-31T18:51:43;10.82;;;4.97;;
64235;SDS011;50564;47.402;9.740;2022-10-31T18:56:44;11.20;;;5.90;;
64235;SDS011;50564;47.402;9.740;2022-10-31T19:01:45;9.10;;;5.05;;
64235;SDS011;50564;47.402;9.740;2022-10-31T19:06:47;11.65;;;5.57;;
64235;SDS011;50564;47.402;9.740;2022-10-31T19:11:48;11.35;;;5.03;;
64235;SDS011;50564;47.402;9.740;2022-10-31T19:16:49;8.68;;;4.43;;
64235;SDS011;50564;47.402;9.740;2022-10-31T19:21:51;8.18;;;4.05;;
64235;SDS011;50564;47.402;9.740;2022-10-31T19:26:52;7.18;;;3.13;;
64235;SDS011;50564;47.402;9.740;2022-10-31T19:31:53;9.35;;;4.20;;
64235;SDS011;50564;47.402;9.740;2022-10-31T19:36:54;8.27;;;4.03;;
64235;SDS011;50564;47.402;9.740;2022-10-31T19:41:56;7.88;;;3.45;;
64235;SDS011;50564;47.402;9.740;2022-10-31T19:46:57;7.03;;;2.67;;
64235;SDS011;50564;47.402;9.740;2022-10-31T19:51:58;12.18;;;4.38;;
64235;SDS011;50564;47.402;9.740;2022-10-31T19:56:58;12.05;;;4.70;;
64235;SDS011;50564;47.402;9.740;2022-10-31T20:02:00;9.70;;;4.20;;
64235;SDS011;50564;47.402;9.740;2022-10-31T20:07:01;8.98;;;4.45;;
64235;SDS011;50564;47.402;9.740;2022-10-31T20:12:02;8.77;;;4.32;;
64235;SDS011;50564;47.402;9.740;2022-10-31T20:17:02;9.15;;;6.55;;
64235;SDS011;50564;47.402;9.740;2022-10-31T20:22:03;12.40;;;7.30;;
64235;SDS011;50564;47.402;9.740;2022-10-31T20:27:04;37.78;;;28.20;;
64235;SDS011;50564;47.402;9.740;2022-10-31T20:32:05;38.45;;;27.83;;
64235;SDS011;50564;47.402;9.740;2022-10-31T20:37:06;51.65;;;29.30;;
64235;SDS011;50564;47.402;9.740;2022-10-31T20:42:06;62.28;;;30.30;;
64235;SDS011;50564;47.402;9.740;2022-10-31T20:47:07;46.05;;;28.33;;
64235;SDS011;50564;47.402;9.740;2022-10-31T20:52:08;70.28;;;30.20;;
64235;SDS011;50564;47.402;9.740;2022-10-31T20:57:09;64.63;;;33.38;;
64235;SDS011;50564;47.402;9.740;2022-10-31T21:02:10;49.10;;;33.72;;
64235;SDS011;50564;47.402;9.740;2022-10-31T21:07:11;43.25;;;31.92;;
64235;SDS011;50564;47.402;9.740;2022-10-31T21:12:12;38.92;;;29.35;;
64235;SDS011;50564;47.402;9.740;2022-10-31T21:17:12;33.28;;;26.52;;
64235;SDS011;50564;47.402;9.740;2022-10-31T21:22:13;37.17;;;27.10;;
64235;SDS011;50564;47.402;9.740;2022-10-31T21:27:14;33.15;;;24.75;;
64235;SDS011;50564;47.402;9.740;2022-10-31T21:32:14;28.83;;;21.85;;
64235;SDS011;50564;47.402;9.740;2022-10-31T21:37:15;32.55;;;21.80;;
64235;SDS011;50564;47.402;9.740;2022-10-31T21:42:16;24.77;;;17.63;;
64235;SDS011;50564;47.402;9.740;2022-10-31T21:47:17;24.20;;;15.90;;
64235;SDS011;50564;47.402;9.740;2022-10-31T21:52:17;20.00;;;13.60;;
64235;SDS011;50564;47.402;9.740;2022-10-31T21:57:18;32.33;;;22.55;;
64235;SDS011;50564;47.402;9.740;2022-10-31T22:02:19;51.47;;;36.00;;
64235;SDS011;50564;47.402;9.740;2022-10-31T22:07:19;30.77;;;18.95;;
64235;SDS011;50564;47.402;9.740;2022-10-31T22:12:20;28.02;;;17.05;;
64235;SDS011;50564;47.402;9.740;2022-10-31T22:17:20;23.15;;;15.02;;
64235;SDS011;50564;47.402;9.740;2022-10-31T22:22:21;22.40;;;15.60;;
64235;SDS011;50564;47.402;9.740;2022-10-31T22:27:22;24.35;;;16.90;;
64235;SDS011;50564;47.402;9.740;2022-10-31T22:32:22;25.73;;;17.30;;
64235;SDS011;50564;47.402;9.740;2022-10-31T22:37:26;33.55;;;25.40;;
64235;SDS011;50564;47.402;9.740;2022-10-31T22:42:27;30.75;;;21.77;;
64235;SDS011;50564;47.402;9.740;2022-10-31T22:47:28;27.73;;;19.90;;
64235;SDS011;50564;47.402;9.740;2022-10-31T22:52:28;26.77;;;18.92;;
64235;SDS011;50564;47.402;9.740;2022-10-31T22:57:29;22.05;;;16.40;;
64235;SDS011;50564;47.402;9.740;2022-10-31T23:02:29;32.25;;;23.08;;
64235;SDS011;50564;47.402;9.740;2022-10-31T23:07:30;30.13;;;22.98;;
64235;SDS011;50564;47.402;9.740;2022-10-31T23:12:31;30.80;;;22.65;;
64235;SDS011;50564;47.402;9.740;2022-10-31T23:17:50;39.35;;;30.20;;
64235;SDS011;50564;47.402;9.740;2022-10-31T23:22:51;51.95;;;38.10;;
64235;SDS011;50564;47.402;9.740;2022-10-31T23:27:51;54.28;;;37.15;;
64235;SDS011;50564;47.402;9.740;2022-10-31T23:32:52;46.88;;;32.35;;
64235;SDS011;50564;47.402;9.740;2022-10-31T23:37:53;52.05;;;33.47;;
64235;SDS011;50564;47.402;9.740;2022-10-31T23:42:53;59.97;;;34.15;;
64235;SDS011;50564;47.402;9.740;2022-10-31T23:47:54;70.32;;;48.58;;
64235;SDS011;50564;47.402;9.740;2022-10-31T23:52:56;52.08;;;36.17;;
64235;SDS011;50564;47.402;9.740;2022-10-31T23:57:57;48.90;;;35.10;;
